createdAt,value
2018-01-26T00:01:18.344Z,5.10
2018-01-26T00:03:46.444Z,5.20
2018-01-26T00:06:14.552Z,5.20
2018-01-26T00:08:42.674Z,5.20
2018-01-26T00:11:10.836Z,5.20
2018-01-26T00:13:38.927Z,5.20
2018-01-26T00:16:07.792Z,5.20
2018-01-26T00:18:36.026Z,5.10
2018-01-26T00:21:04.204Z,5.10
2018-01-26T00:23:32.304Z,5.10
2018-01-26T00:26:00.399Z,5.20
2018-01-26T00:28:28.497Z,5.20
2018-01-26T00:30:56.593Z,5.30
2018-01-26T00:33:24.723Z,5.30
2018-01-26T00:35:52.863Z,5.30
2018-01-26T00:38:20.972Z,5.30
2018-01-26T00:40:49.047Z,5.40
2018-01-26T00:43:17.227Z,5.40
2018-01-26T00:45:45.908Z,5.40
2018-01-26T00:48:14.035Z,5.30
2018-01-26T00:50:42.238Z,5.20
2018-01-26T00:53:10.428Z,5.20
2018-01-26T00:55:38.511Z,5.10
2018-01-26T00:58:06.631Z,5.00
2018-01-26T01:00:34.744Z,4.90
2018-01-26T01:03:02.844Z,4.90
2018-01-26T01:05:30.919Z,5.00
2018-01-26T01:07:59.776Z,5.00
2018-01-26T01:10:27.871Z,4.90
2018-01-26T01:12:55.968Z,4.90
2018-01-26T01:15:24.066Z,4.80
2018-01-26T01:17:52.148Z,4.70
2018-01-26T01:20:20.252Z,4.70
2018-01-26T01:22:48.374Z,4.60
2018-01-26T01:25:16.464Z,4.50
2018-01-26T01:27:45.150Z,4.40
2018-01-26T01:30:13.286Z,4.30
2018-01-26T01:32:41.400Z,4.20
2018-01-26T01:35:09.486Z,4.20
2018-01-26T01:37:37.592Z,4.10
2018-01-26T01:40:05.688Z,4.00
2018-01-26T01:42:33.783Z,3.90
2018-01-26T01:45:01.899Z,3.90
2018-01-26T01:47:29.990Z,3.90
2018-01-26T01:49:58.871Z,3.80
2018-01-26T01:52:26.959Z,3.80
2018-01-26T01:54:55.063Z,3.80
2018-01-26T01:57:23.151Z,3.80
2018-01-26T01:59:51.245Z,3.80
2018-01-26T02:02:19.340Z,3.80
2018-01-26T02:04:47.439Z,3.80
2018-01-26T02:07:15.561Z,3.80
2018-01-26T02:09:43.669Z,3.80
2018-01-26T02:12:11.759Z,3.80
2018-01-26T02:14:39.871Z,3.90
2018-01-26T02:17:07.967Z,4.00
2018-01-26T02:19:36.092Z,4.00
2018-01-26T02:22:04.929Z,4.00
2018-01-26T02:24:33.071Z,4.00
2018-01-26T02:27:01.166Z,4.00
2018-01-26T02:29:30.141Z,3.90
2018-01-26T02:31:58.370Z,3.90
2018-01-26T02:34:26.497Z,3.80
2018-01-26T02:36:54.593Z,3.80
2018-01-26T02:39:22.676Z,3.70
2018-01-26T02:41:50.806Z,3.70
2018-01-26T02:44:18.870Z,3.70
2018-01-26T02:46:46.966Z,3.70
2018-01-26T02:49:15.820Z,3.70
2018-01-26T02:51:43.916Z,3.70
2018-01-26T02:54:12.001Z,3.80
2018-01-26T02:56:40.074Z,3.90
2018-01-26T02:59:08.946Z,3.90
2018-01-26T03:01:37.036Z,4.00
2018-01-26T03:04:05.913Z,4.00
2018-01-26T03:06:33.997Z,3.90
2018-01-26T03:09:02.859Z,3.90
2018-01-26T03:11:30.960Z,3.90
2018-01-26T03:13:59.815Z,3.80
2018-01-26T03:16:27.920Z,3.80
2018-01-26T03:18:56.787Z,3.70
2018-01-26T03:21:24.905Z,3.70
2018-01-26T03:23:52.992Z,3.60
2018-01-26T03:26:21.070Z,3.60
2018-01-26T03:28:49.210Z,3.50
2018-01-26T03:31:17.339Z,3.50
2018-01-26T03:33:45.459Z,3.50
2018-01-26T03:36:13.563Z,3.40
2018-01-26T03:38:41.637Z,3.40
2018-01-26T03:41:09.742Z,3.40
2018-01-26T03:43:38.171Z,3.30
2018-01-26T03:46:06.279Z,3.30
2018-01-26T03:48:34.357Z,3.30
2018-01-26T03:51:02.462Z,3.30
2018-01-26T03:53:30.600Z,3.30
2018-01-26T03:55:59.118Z,3.20
2018-01-26T03:58:27.966Z,3.20
2018-01-26T04:00:56.134Z,3.20
2018-01-26T04:03:24.224Z,3.10
2018-01-26T04:05:52.310Z,3.10
2018-01-26T04:08:20.402Z,3.10
2018-01-26T04:10:48.492Z,3.00
2018-01-26T04:13:16.580Z,3.00
2018-01-26T04:15:44.718Z,3.00
2018-01-26T04:18:12.830Z,3.00
2018-01-26T04:20:41.448Z,2.90
2018-01-26T04:23:09.598Z,2.90
2018-01-26T04:25:37.717Z,2.80
2018-01-26T04:28:05.816Z,2.80
2018-01-26T04:30:33.901Z,2.80
2018-01-26T04:33:02.031Z,2.70
2018-01-26T04:35:30.883Z,2.70
2018-01-26T04:37:59.016Z,2.70
2018-01-26T04:40:27.107Z,2.60
2018-01-26T04:42:55.186Z,2.60
2018-01-26T04:45:23.275Z,2.60
2018-01-26T04:47:51.357Z,2.50
2018-01-26T04:50:19.475Z,2.50
2018-01-26T04:52:47.591Z,2.50
2018-01-26T04:55:15.787Z,2.50
2018-01-26T04:57:43.888Z,2.50
2018-01-26T05:00:11.989Z,2.50
2018-01-26T05:02:40.080Z,2.50
2018-01-26T05:05:08.167Z,2.50
2018-01-26T05:07:36.235Z,2.50
2018-01-26T05:10:04.358Z,2.50
2018-01-26T05:12:32.439Z,2.50
2018-01-26T05:15:00.538Z,2.50
2018-01-26T05:17:28.636Z,2.50
2018-01-26T05:19:56.718Z,2.40
2018-01-26T05:22:24.877Z,2.40
2018-01-26T05:24:53.031Z,2.40
2018-01-26T05:27:21.126Z,2.40
2018-01-26T05:29:49.212Z,2.40
2018-01-26T05:32:17.302Z,2.30
2018-01-26T05:34:45.422Z,2.30
2018-01-26T05:37:13.528Z,2.30
2018-01-26T05:39:42.373Z,2.30
2018-01-26T05:42:10.887Z,2.30
2018-01-26T05:44:39.789Z,2.30
2018-01-26T05:47:07.884Z,2.30
2018-01-26T05:49:35.977Z,2.30
2018-01-26T05:52:04.062Z,2.30
2018-01-26T05:54:32.165Z,2.20
2018-01-26T05:57:00.265Z,2.20
2018-01-26T05:59:28.389Z,2.20
2018-01-26T06:01:56.483Z,2.10
2018-01-26T06:04:24.584Z,2.10
2018-01-26T06:06:52.726Z,2.00
2018-01-26T06:09:20.825Z,2.00
2018-01-26T06:11:48.915Z,2.00
2018-01-26T06:14:17.011Z,2.00
2018-01-26T06:16:45.115Z,2.00
2018-01-26T06:19:14.001Z,2.00
2018-01-26T06:21:42.085Z,2.00
2018-01-26T06:24:10.966Z,2.00
2018-01-26T06:26:39.105Z,1.90
2018-01-26T06:29:07.203Z,1.90
2018-01-26T06:31:35.365Z,1.90
2018-01-26T06:34:03.454Z,1.90
2018-01-26T06:36:32.258Z,1.90
2018-01-26T06:40:40.706Z,1.90
2018-01-26T06:43:08.840Z,1.90
2018-01-26T06:45:37.330Z,1.90
2018-01-26T06:48:06.166Z,1.80
2018-01-26T06:50:34.272Z,1.80
2018-01-26T06:53:02.376Z,1.80
2018-01-26T06:55:30.458Z,1.80
2018-01-26T06:57:58.572Z,1.70
2018-01-26T07:00:26.692Z,1.70
2018-01-26T07:02:54.960Z,1.70
2018-01-26T07:05:23.046Z,1.70
2018-01-26T07:07:51.134Z,1.70
2018-01-26T07:10:19.711Z,1.70
2018-01-26T07:12:47.832Z,1.70
2018-01-26T07:15:15.926Z,1.80
2018-01-26T07:17:44.051Z,1.80
2018-01-26T07:20:12.171Z,1.80
2018-01-26T07:22:40.275Z,1.80
2018-01-26T07:25:08.379Z,1.90
2018-01-26T07:27:36.474Z,1.90
2018-01-26T07:30:04.671Z,2.00
2018-01-26T07:32:33.513Z,2.00
2018-01-26T07:35:01.603Z,2.10
2018-01-26T07:37:29.695Z,2.10
2018-01-26T07:39:57.783Z,2.20
2018-01-26T07:42:25.931Z,2.30
2018-01-26T07:44:54.111Z,2.30
2018-01-26T07:47:22.201Z,2.40
2018-01-26T07:49:50.307Z,2.40
2018-01-26T07:52:19.151Z,2.50
2018-01-26T07:54:47.995Z,2.50
2018-01-26T07:57:16.123Z,2.60
2018-01-26T07:59:44.216Z,2.70
2018-01-26T08:02:12.297Z,2.70
2018-01-26T08:04:40.372Z,2.80
2018-01-26T08:07:08.470Z,2.90
2018-01-26T08:09:36.751Z,2.90
2018-01-26T08:12:05.026Z,3.00
2018-01-26T08:14:33.131Z,3.10
2018-01-26T08:17:01.214Z,3.20
2018-01-26T08:19:29.320Z,3.30
2018-01-26T08:21:57.408Z,3.40
2018-01-26T08:24:25.486Z,3.50
2018-01-26T08:26:53.580Z,3.70
2018-01-26T08:29:21.656Z,3.80
2018-01-26T08:31:49.782Z,3.90
2018-01-26T08:34:17.958Z,4.00
2018-01-26T08:36:46.076Z,4.10
2018-01-26T08:39:14.931Z,4.10
2018-01-26T08:41:43.029Z,4.20
2018-01-26T08:44:11.883Z,4.30
2018-01-26T08:46:40.752Z,4.40
2018-01-26T08:49:08.850Z,4.50
2018-01-26T08:51:36.925Z,4.60
2018-01-26T08:54:05.019Z,4.70
2018-01-26T08:56:33.115Z,4.80
2018-01-26T08:59:01.261Z,4.90
2018-01-26T09:01:29.336Z,5.00
2018-01-26T09:03:57.421Z,5.10
2018-01-26T09:06:25.497Z,5.20
2018-01-26T09:08:53.597Z,5.30
2018-01-26T09:11:21.716Z,5.40
2018-01-26T09:13:49.802Z,5.50
2018-01-26T09:16:18.664Z,5.60
2018-01-26T09:18:46.738Z,5.70
2018-01-26T09:21:14.878Z,5.70
2018-01-26T09:23:42.981Z,5.80
2018-01-26T09:26:11.079Z,5.90
2018-01-26T09:28:39.161Z,6.00
2018-01-26T09:31:07.253Z,6.10
2018-01-26T09:33:35.329Z,6.20
2018-01-26T09:36:03.418Z,6.40
2018-01-26T09:38:31.514Z,6.40
2018-01-26T09:40:59.730Z,6.60
2018-01-26T09:43:27.858Z,6.60
2018-01-26T09:45:55.965Z,6.70
2018-01-26T09:48:24.673Z,6.80
2018-01-26T09:50:52.800Z,6.80
2018-01-26T09:53:20.972Z,6.90
2018-01-26T09:55:49.092Z,7.00
2018-01-26T09:58:17.184Z,7.00
2018-01-26T10:00:45.278Z,7.10
2018-01-26T10:03:13.371Z,7.20
2018-01-26T10:05:41.463Z,7.30
2018-01-26T10:08:09.571Z,7.40
2018-01-26T10:10:37.713Z,7.50
2018-01-26T10:13:05.832Z,7.60
2018-01-26T10:15:33.935Z,7.70
2018-01-26T10:18:02.659Z,7.90
2018-01-26T10:20:30.783Z,8.00
2018-01-26T10:22:59.023Z,8.10
2018-01-26T10:25:27.229Z,8.20
2018-01-26T10:27:56.279Z,8.40
2018-01-26T10:30:24.393Z,8.50
2018-01-26T10:32:52.469Z,8.70
2018-01-26T10:35:20.559Z,8.80
2018-01-26T10:37:48.643Z,9.00
2018-01-26T10:40:16.749Z,9.10
2018-01-26T10:42:44.987Z,9.30
2018-01-26T10:45:13.163Z,9.50
2018-01-26T10:47:41.271Z,9.60
2018-01-26T10:50:09.368Z,9.80
2018-01-26T10:52:37.457Z,10.00
2018-01-26T10:55:05.580Z,10.20
2018-01-26T10:57:33.664Z,10.30
2018-01-26T11:00:01.812Z,10.50
2018-01-26T11:02:29.930Z,10.70
2018-01-26T11:04:58.080Z,10.90
2018-01-26T11:07:26.164Z,11.00
2018-01-26T11:09:54.263Z,11.10
2018-01-26T11:12:22.363Z,11.10
2018-01-26T11:14:50.858Z,11.20
2018-01-26T11:17:19.596Z,11.20
2018-01-26T11:19:47.728Z,11.20
2018-01-26T11:22:15.950Z,11.20
2018-01-26T11:24:44.189Z,11.20
2018-01-26T11:27:12.399Z,11.20
2018-01-26T11:29:40.632Z,11.10
2018-01-26T11:32:08.756Z,11.10
2018-01-26T11:34:41.479Z,11.10
2018-01-26T11:37:09.586Z,11.00
2018-01-26T11:39:37.679Z,11.00
2018-01-26T11:42:06.587Z,10.90
2018-01-26T11:44:34.699Z,11.00
2018-01-26T11:47:02.791Z,11.10
2018-01-26T11:49:30.928Z,11.10
2018-01-26T11:51:59.025Z,11.20
2018-01-26T11:54:27.127Z,11.30
2018-01-26T11:56:55.221Z,11.40
2018-01-26T11:59:23.321Z,11.40
2018-01-26T12:01:51.491Z,11.40
2018-01-26T12:04:19.595Z,11.50
2018-01-26T12:06:47.687Z,11.50
2018-01-26T12:09:15.833Z,11.60
2018-01-26T12:11:43.940Z,11.70
2018-01-26T12:14:12.070Z,11.80
2018-01-26T12:16:40.952Z,11.90
2018-01-26T12:19:09.430Z,11.90
2018-01-26T12:21:37.539Z,11.90
2018-01-26T12:24:05.662Z,11.90
2018-01-26T12:26:33.742Z,12.00
2018-01-26T12:29:01.845Z,12.00
2018-01-26T12:31:29.968Z,12.00
2018-01-26T12:33:58.060Z,12.10
2018-01-26T12:36:26.160Z,12.20
2018-01-26T12:38:54.252Z,12.30
2018-01-26T12:41:23.122Z,12.30
2018-01-26T12:43:51.210Z,12.20
2018-01-26T12:46:20.196Z,12.00
2018-01-26T12:48:48.430Z,11.90
2018-01-26T12:51:16.541Z,11.80
2018-01-26T12:53:44.654Z,11.80
2018-01-26T12:56:12.766Z,11.90
2018-01-26T12:58:40.864Z,11.90
2018-01-26T13:01:08.959Z,12.00
2018-01-26T13:03:37.127Z,12.00
2018-01-26T13:06:05.227Z,12.10
2018-01-26T13:08:33.343Z,12.20
2018-01-26T13:11:01.447Z,12.30
2018-01-26T13:13:30.341Z,12.40
2018-01-26T13:15:58.441Z,12.50
2018-01-26T13:18:26.553Z,12.50
2018-01-26T13:20:54.729Z,12.50
2018-01-26T13:23:22.921Z,12.50
2018-01-26T13:25:51.140Z,12.40
2018-01-26T13:28:19.240Z,12.20
2018-01-26T13:30:47.396Z,12.00
2018-01-26T13:33:15.510Z,11.80
2018-01-26T13:35:44.365Z,11.60
2018-01-26T13:38:12.596Z,11.50
2018-01-26T13:40:40.779Z,11.40
2018-01-26T13:43:08.853Z,11.30
2018-01-26T13:45:36.976Z,11.30
2018-01-26T13:48:05.125Z,11.30
2018-01-26T13:50:33.978Z,11.30
2018-01-26T13:53:02.073Z,11.20
2018-01-26T13:55:30.194Z,11.10
2018-01-26T13:57:59.203Z,10.90
2018-01-26T14:00:27.322Z,10.80
2018-01-26T14:02:55.795Z,10.60
2018-01-26T14:05:24.679Z,10.50
2018-01-26T14:07:52.774Z,10.30
2018-01-26T14:10:20.878Z,10.20
2018-01-26T14:12:48.972Z,10.20
2018-01-26T14:15:17.103Z,10.10
2018-01-26T14:17:45.373Z,10.00
2018-01-26T14:20:13.641Z,10.00
2018-01-26T14:22:41.836Z,10.00
2018-01-26T14:25:09.951Z,10.00
2018-01-26T14:27:38.047Z,10.00
2018-01-26T14:30:06.627Z,10.00
2018-01-26T14:32:34.849Z,10.00
2018-01-26T14:35:02.971Z,10.10
2018-01-26T14:37:31.894Z,10.20
2018-01-26T14:40:00.004Z,10.30
2018-01-26T14:42:28.110Z,10.30
2018-01-26T14:44:56.209Z,10.40
2018-01-26T14:47:24.348Z,10.40
2018-01-26T14:49:53.211Z,10.40
2018-01-26T14:52:21.311Z,10.40
2018-01-26T14:54:50.186Z,10.40
2018-01-26T14:57:18.389Z,10.30
2018-01-26T14:59:46.513Z,10.20
2018-01-26T15:02:14.693Z,10.20
2018-01-26T15:04:42.784Z,10.10
2018-01-26T15:07:10.896Z,9.90
2018-01-26T15:09:38.991Z,9.80
2018-01-26T15:12:07.094Z,9.70
2018-01-26T15:14:35.197Z,9.60
2018-01-26T15:17:03.285Z,9.50
2018-01-26T15:19:31.400Z,9.40
2018-01-26T15:21:59.477Z,9.30
2018-01-26T15:24:27.581Z,9.20
2018-01-26T15:26:55.674Z,9.10
2018-01-26T15:29:23.777Z,9.00
2018-01-26T15:31:51.856Z,9.00
2018-01-26T15:34:20.037Z,8.90
2018-01-26T15:36:48.138Z,8.80
2018-01-26T15:39:16.245Z,8.70
2018-01-26T15:41:44.328Z,8.60
2018-01-26T15:44:12.419Z,8.60
2018-01-26T15:46:40.516Z,8.50
2018-01-26T15:49:08.594Z,8.40
2018-01-26T15:51:36.781Z,8.30
2018-01-26T15:54:05.049Z,8.20
2018-01-26T15:56:33.312Z,8.10
2018-01-26T15:59:01.513Z,8.00
2018-01-26T16:01:29.709Z,7.90
2018-01-26T16:03:57.801Z,7.70
2018-01-26T16:06:25.923Z,7.70
2018-01-26T16:08:55.787Z,7.60
2018-01-26T16:11:23.967Z,7.40
2018-01-26T16:13:52.095Z,7.30
2018-01-26T16:16:20.201Z,7.20
2018-01-26T16:18:48.323Z,7.10
2018-01-26T16:21:16.420Z,7.00
2018-01-26T16:23:44.526Z,6.90
2018-01-26T16:26:12.607Z,6.90
2018-01-26T16:28:40.724Z,6.80
2018-01-26T16:31:08.810Z,6.70
2018-01-26T16:33:37.007Z,6.60
2018-01-26T16:36:05.228Z,6.60
2018-01-26T16:38:34.108Z,6.50
2018-01-26T16:41:02.214Z,6.40
2018-01-26T16:43:30.380Z,6.30
2018-01-26T16:45:58.460Z,6.30
2018-01-26T16:48:26.562Z,6.20
2018-01-26T16:50:54.648Z,6.10
2018-01-26T16:53:23.408Z,6.10
2018-01-26T16:55:51.498Z,6.00
2018-01-26T16:58:19.616Z,6.00
2018-01-26T17:00:47.714Z,5.90
2018-01-26T17:03:15.808Z,5.90
2018-01-26T17:05:43.925Z,5.80
2018-01-26T17:08:12.021Z,5.80
2018-01-26T17:10:40.679Z,5.70
2018-01-26T17:13:09.574Z,5.60
2018-01-26T17:15:37.667Z,5.60
2018-01-26T17:18:05.794Z,5.50
2018-01-26T17:20:33.909Z,5.40
2018-01-26T17:23:02.001Z,5.40
2018-01-26T17:25:30.105Z,5.30
2018-01-26T17:27:58.207Z,5.20
2018-01-26T17:30:27.094Z,5.20
2018-01-26T17:32:55.191Z,5.10
2018-01-26T17:35:23.288Z,5.00
2018-01-26T17:37:51.466Z,5.00
2018-01-26T17:40:19.576Z,4.90
2018-01-26T17:42:47.691Z,4.80
2018-01-26T17:45:15.879Z,4.70
2018-01-26T17:47:44.023Z,4.60
2018-01-26T17:50:12.701Z,4.60
2018-01-26T17:52:41.737Z,4.50
2018-01-26T17:55:09.897Z,4.40
2018-01-26T17:57:38.008Z,4.30
2018-01-26T18:00:06.109Z,4.30
2018-01-26T18:02:34.213Z,4.20
2018-01-26T18:05:02.312Z,4.10
2018-01-26T18:07:30.443Z,4.10
2018-01-26T18:09:58.636Z,4.00
2018-01-26T18:12:26.870Z,3.90
2018-01-26T18:14:55.428Z,3.80
2018-01-26T18:17:23.512Z,3.80
2018-01-26T18:19:51.623Z,3.70
2018-01-26T18:22:19.714Z,3.60
2018-01-26T18:24:47.826Z,3.60
2018-01-26T18:27:15.926Z,3.50
2018-01-26T18:29:44.056Z,3.40
2018-01-26T18:32:12.741Z,3.40
2018-01-26T18:34:40.901Z,3.30
2018-01-26T18:37:09.251Z,3.30
2018-01-26T18:39:38.519Z,3.20
2018-01-26T18:42:06.929Z,3.20
2018-01-26T18:44:35.279Z,3.20
2018-01-26T18:47:03.550Z,3.20
2018-01-26T18:49:31.885Z,3.20
2018-01-26T18:52:00.009Z,3.20
2018-01-26T18:54:28.187Z,3.20
2018-01-26T18:56:56.537Z,3.20
2018-01-26T18:59:24.831Z,3.20
2018-01-26T19:01:53.612Z,3.20
2018-01-26T19:04:21.765Z,3.10
2018-01-26T19:06:51.092Z,3.10
2018-01-26T19:09:19.191Z,3.10
2018-01-26T19:11:47.375Z,3.00
2018-01-26T19:14:17.744Z,3.00
2018-01-26T19:16:45.869Z,3.00
2018-01-26T19:19:14.028Z,2.90
2018-01-26T19:21:42.547Z,2.90
2018-01-26T19:24:11.141Z,2.90
2018-01-26T19:26:39.498Z,2.80
2018-01-26T19:29:07.772Z,2.80
2018-01-26T19:31:35.987Z,2.70
2018-01-26T19:34:04.230Z,2.70
2018-01-26T19:36:33.530Z,2.70
2018-01-26T19:39:02.312Z,2.60
2018-01-26T19:41:30.497Z,2.60
2018-01-26T19:43:59.449Z,2.60
2018-01-26T19:46:27.607Z,2.50
2018-01-26T19:48:55.864Z,2.50
2018-01-26T19:51:24.033Z,2.50
2018-01-26T19:53:52.225Z,2.50
2018-01-26T19:56:20.420Z,2.50
2018-01-26T19:58:48.581Z,2.50
2018-01-26T20:01:16.706Z,2.50
2018-01-26T20:04:02.644Z,2.50
2018-01-26T20:06:54.143Z,2.50
2018-01-26T20:09:26.219Z,2.50
2018-01-26T20:11:59.921Z,2.50
2018-01-26T20:14:28.086Z,2.50
2018-01-26T20:16:56.231Z,2.50
2018-01-26T20:19:24.398Z,2.50
2018-01-26T20:21:52.537Z,2.50
2018-01-26T20:24:20.681Z,2.50
2018-01-26T20:26:48.827Z,2.50
2018-01-26T20:29:17.163Z,2.50
2018-01-26T20:31:45.338Z,2.50
2018-01-26T20:34:13.522Z,2.50
2018-01-26T20:36:42.482Z,2.50
2018-01-26T20:39:10.660Z,2.40
2018-01-26T20:41:39.611Z,2.40
2018-01-26T20:44:07.758Z,2.40
2018-01-26T20:46:35.960Z,2.40
2018-01-26T20:49:04.339Z,2.40
2018-01-26T20:51:32.465Z,2.40
2018-01-26T20:54:00.706Z,2.40
2018-01-26T20:56:28.865Z,2.40
2018-01-26T20:58:57.097Z,2.40
2018-01-26T21:01:25.265Z,2.40
2018-01-26T21:03:53.519Z,2.40
2018-01-26T21:06:21.722Z,2.40
2018-01-26T21:08:49.980Z,2.40
2018-01-26T21:11:18.207Z,2.40
2018-01-26T21:13:46.402Z,2.50
2018-01-26T21:16:14.534Z,2.50
2018-01-26T21:18:43.002Z,2.50
2018-01-26T21:21:11.122Z,2.50
2018-01-26T21:23:39.283Z,2.50
2018-01-26T21:26:07.409Z,2.50
2018-01-26T21:28:35.607Z,2.50
2018-01-26T21:31:04.468Z,2.50
2018-01-26T21:33:32.619Z,2.50
2018-01-26T21:36:00.778Z,2.50
2018-01-26T21:38:28.868Z,2.50
2018-01-26T21:40:56.990Z,2.50
2018-01-26T21:43:25.865Z,2.50
2018-01-26T21:45:53.988Z,2.60
2018-01-26T21:48:22.095Z,2.60
2018-01-26T21:50:50.251Z,2.60
2018-01-26T21:53:18.358Z,2.60
2018-01-26T21:55:47.260Z,2.50
2018-01-26T21:58:15.347Z,2.60
2018-01-26T22:00:43.459Z,2.50
2018-01-26T22:03:11.557Z,2.50
2018-01-26T22:05:39.707Z,2.60
2018-01-26T22:08:07.898Z,2.60
2018-01-26T22:10:36.042Z,2.60
2018-01-26T22:13:04.138Z,2.60
2018-01-26T22:15:32.466Z,2.70
2018-01-26T22:18:00.594Z,2.80
2018-01-26T22:20:28.705Z,2.90
2018-01-26T22:22:57.074Z,2.90
2018-01-26T22:25:25.180Z,3.00
2018-01-26T22:27:53.290Z,3.10
2018-01-26T22:30:21.384Z,3.10
2018-01-26T22:32:49.499Z,3.20
2018-01-26T22:35:17.590Z,3.30
2018-01-26T22:37:45.692Z,3.40
2018-01-26T22:40:14.569Z,3.50
2018-01-26T22:42:42.673Z,3.50
2018-01-26T22:45:10.873Z,3.60
2018-01-26T22:47:38.977Z,3.70
2018-01-26T22:50:07.085Z,3.80
2018-01-26T22:52:36.215Z,3.90
2018-01-26T22:55:04.308Z,4.00
2018-01-26T22:57:32.399Z,4.00
2018-01-26T23:00:00.591Z,4.00
2018-01-26T23:02:29.437Z,4.10
2018-01-26T23:04:57.545Z,4.10
2018-01-26T23:07:25.637Z,4.20
2018-01-26T23:09:53.724Z,4.20
2018-01-26T23:12:21.830Z,4.30
2018-01-26T23:14:49.944Z,4.40
2018-01-26T23:17:18.015Z,4.40
2018-01-26T23:19:46.113Z,4.50
2018-01-26T23:22:14.348Z,4.50
2018-01-26T23:24:42.614Z,4.50
2018-01-26T23:27:10.805Z,4.60
2018-01-26T23:29:39.227Z,4.60
2018-01-26T23:32:07.354Z,4.60
2018-01-26T23:34:36.276Z,4.70
2018-01-26T23:37:04.379Z,4.70
2018-01-26T23:39:32.522Z,4.70
2018-01-26T23:42:00.704Z,4.80
2018-01-26T23:44:28.789Z,4.80
2018-01-26T23:46:56.884Z,4.90
2018-01-26T23:49:24.968Z,4.90
2018-01-26T23:51:53.078Z,5.00
2018-01-26T23:54:21.158Z,5.00
2018-01-26T23:56:49.253Z,5.10
2018-01-26T23:59:17.357Z,5.20
